Weather at West End Airport

Public forecast

Using degrees Celsius for public forecast. Weather courtesy of forecast.io.

Closest aviation weather report (METAR) to West End Airport

Closest report is Grand Bahama International Airport, 16.8 nm (31.1 km) ESE. Retrieved 2020/09/20 20:00 UTC (54 minutes ago):

MYGF 202000Z 36007KT 9999 FEW015CB SCT018TCU 31/26 A2988

Closest aviation forecast (TAF) to West End Airport

Closest forecast is Grand Bahama International Airport, 16.8 nm (31.1 km) ESE. Retrieved 2020/09/20 18:03 UTC (3 hours ago):

TAF MYGF 201630Z 2018/2118 18005KT 9999 VCSH FEW015CB SCT018 BKN250 PROB30 TEMPO 2022/2108 VRB15KT 9000 SHRA SCT015CB BKN030 PROB40 TEMPO 2109/2121 04015G25KT 4800 TSRA BKN015CB BKN030